sensor_id;sensor_type;location;lat;lon;timestamp;P1;durP1;ratioP1;P2;durP2;ratioP2
42770;SDS011;28426;42.872;25.314;2023-03-01T00:01:09;4.80;;;2.65;;
42770;SDS011;28426;42.872;25.314;2023-03-01T00:03:42;6.55;;;3.08;;
42770;SDS011;28426;42.872;25.314;2023-03-01T00:06:15;5.95;;;2.83;;
42770;SDS011;28426;42.872;25.314;2023-03-01T00:08:46;5.10;;;2.80;;
42770;SDS011;28426;42.872;25.314;2023-03-01T00:11:18;4.60;;;2.65;;
42770;SDS011;28426;42.872;25.314;2023-03-01T00:13:51;5.53;;;3.20;;
42770;SDS011;28426;42.872;25.314;2023-03-01T00:16:26;5.68;;;3.03;;
42770;SDS011;28426;42.872;25.314;2023-03-01T00:18:58;4.70;;;2.50;;
42770;SDS011;28426;42.872;25.314;2023-03-01T00:21:32;4.40;;;2.60;;
42770;SDS011;28426;42.872;25.314;2023-03-01T00:24:03;5.15;;;2.85;;
42770;SDS011;28426;42.872;25.314;2023-03-01T00:26:34;4.30;;;2.67;;
42770;SDS011;28426;42.872;25.314;2023-03-01T00:29:04;6.10;;;3.83;;
42770;SDS011;28426;42.872;25.314;2023-03-01T00:31:35;7.10;;;3.70;;
42770;SDS011;28426;42.872;25.314;2023-03-01T00:34:06;8.40;;;4.15;;
42770;SDS011;28426;42.872;25.314;2023-03-01T00:36:39;5.22;;;3.30;;
42770;SDS011;28426;42.872;25.314;2023-03-01T00:39:11;5.22;;;2.97;;
42770;SDS011;28426;42.872;25.314;2023-03-01T00:41:43;5.18;;;2.88;;
42770;SDS011;28426;42.872;25.314;2023-03-01T00:44:14;5.47;;;2.78;;
42770;SDS011;28426;42.872;25.314;2023-03-01T00:46:44;6.28;;;3.00;;
42770;SDS011;28426;42.872;25.314;2023-03-01T00:49:15;5.93;;;2.92;;
42770;SDS011;28426;42.872;25.314;2023-03-01T00:51:48;4.90;;;2.85;;
42770;SDS011;28426;42.872;25.314;2023-03-01T00:54:19;5.63;;;3.33;;
42770;SDS011;28426;42.872;25.314;2023-03-01T00:56:49;5.00;;;2.95;;
42770;SDS011;28426;42.872;25.314;2023-03-01T00:59:20;5.22;;;3.13;;
42770;SDS011;28426;42.872;25.314;2023-03-01T01:01:50;7.32;;;4.40;;
42770;SDS011;28426;42.872;25.314;2023-03-01T01:04:21;6.75;;;3.90;;
42770;SDS011;28426;42.872;25.314;2023-03-01T01:06:55;7.13;;;4.00;;
42770;SDS011;28426;42.872;25.314;2023-03-01T01:09:25;6.50;;;3.70;;
42770;SDS011;28426;42.872;25.314;2023-03-01T01:11:56;6.35;;;4.00;;
42770;SDS011;28426;42.872;25.314;2023-03-01T01:14:26;5.10;;;2.95;;
42770;SDS011;28426;42.872;25.314;2023-03-01T01:16:57;4.68;;;2.78;;
42770;SDS011;28426;42.872;25.314;2023-03-01T01:19:28;4.55;;;2.80;;
42770;SDS011;28426;42.872;25.314;2023-03-01T01:22:01;4.75;;;2.88;;
42770;SDS011;28426;42.872;25.314;2023-03-01T01:24:32;5.07;;;2.92;;
42770;SDS011;28426;42.872;25.314;2023-03-01T01:27:02;4.53;;;2.70;;
42770;SDS011;28426;42.872;25.314;2023-03-01T01:29:34;5.85;;;3.63;;
42770;SDS011;28426;42.872;25.314;2023-03-01T01:32:05;6.10;;;3.63;;
42770;SDS011;28426;42.872;25.314;2023-03-01T01:34:36;7.60;;;3.80;;
42770;SDS011;28426;42.872;25.314;2023-03-01T01:37:09;6.00;;;3.70;;
42770;SDS011;28426;42.872;25.314;2023-03-01T01:39:40;6.40;;;3.78;;
42770;SDS011;28426;42.872;25.314;2023-03-01T01:42:11;6.07;;;3.90;;
42770;SDS011;28426;42.872;25.314;2023-03-01T01:44:45;6.97;;;4.00;;
42770;SDS011;28426;42.872;25.314;2023-03-01T01:47:19;5.45;;;3.35;;
42770;SDS011;28426;42.872;25.314;2023-03-01T01:49:53;5.85;;;3.85;;
42770;SDS011;28426;42.872;25.314;2023-03-01T01:52:29;5.35;;;3.28;;
42770;SDS011;28426;42.872;25.314;2023-03-01T01:55:05;4.75;;;2.75;;
42770;SDS011;28426;42.872;25.314;2023-03-01T01:57:39;5.10;;;3.13;;
42770;SDS011;28426;42.872;25.314;2023-03-01T02:00:14;5.68;;;3.65;;
42770;SDS011;28426;42.872;25.314;2023-03-01T02:02:49;5.05;;;3.00;;
42770;SDS011;28426;42.872;25.314;2023-03-01T02:05:26;5.43;;;3.53;;
42770;SDS011;28426;42.872;25.314;2023-03-01T02:08:06;5.53;;;3.83;;
42770;SDS011;28426;42.872;25.314;2023-03-01T02:10:38;6.18;;;3.90;;
42770;SDS011;28426;42.872;25.314;2023-03-01T02:13:09;8.32;;;4.82;;
42770;SDS011;28426;42.872;25.314;2023-03-01T02:15:41;6.47;;;4.38;;
42770;SDS011;28426;42.872;25.314;2023-03-01T02:18:14;6.18;;;4.18;;
42770;SDS011;28426;42.872;25.314;2023-03-01T02:20:50;5.82;;;3.55;;
42770;SDS011;28426;42.872;25.314;2023-03-01T02:23:34;5.88;;;4.00;;
42770;SDS011;28426;42.872;25.314;2023-03-01T02:26:10;8.13;;;4.50;;
42770;SDS011;28426;42.872;25.314;2023-03-01T02:28:50;7.32;;;4.35;;
42770;SDS011;28426;42.872;25.314;2023-03-01T02:31:21;6.68;;;4.25;;
42770;SDS011;28426;42.872;25.314;2023-03-01T02:34:05;6.50;;;3.60;;
42770;SDS011;28426;42.872;25.314;2023-03-01T02:36:37;7.15;;;4.05;;
42770;SDS011;28426;42.872;25.314;2023-03-01T02:39:11;5.50;;;3.45;;
42770;SDS011;28426;42.872;25.314;2023-03-01T02:41:47;6.07;;;4.07;;
42770;SDS011;28426;42.872;25.314;2023-03-01T02:44:22;6.97;;;4.00;;
42770;SDS011;28426;42.872;25.314;2023-03-01T02:46:54;7.05;;;4.20;;
42770;SDS011;28426;42.872;25.314;2023-03-01T02:49:27;7.82;;;4.45;;
42770;SDS011;28426;42.872;25.314;2023-03-01T02:52:13;8.27;;;5.40;;
42770;SDS011;28426;42.872;25.314;2023-03-01T02:54:59;6.57;;;4.10;;
42770;SDS011;28426;42.872;25.314;2023-03-01T02:57:32;6.07;;;4.00;;
42770;SDS011;28426;42.872;25.314;2023-03-01T03:00:09;6.07;;;3.67;;
42770;SDS011;28426;42.872;25.314;2023-03-01T03:02:47;7.43;;;4.53;;
42770;SDS011;28426;42.872;25.314;2023-03-01T03:05:22;10.07;;;6.20;;
42770;SDS011;28426;42.872;25.314;2023-03-01T03:07:57;8.48;;;5.40;;
42770;SDS011;28426;42.872;25.314;2023-03-01T03:13:03;9.90;;;6.07;;
42770;SDS011;28426;42.872;25.314;2023-03-01T03:15:39;9.57;;;6.28;;
42770;SDS011;28426;42.872;25.314;2023-03-01T03:18:11;8.05;;;5.35;;
42770;SDS011;28426;42.872;25.314;2023-03-01T03:20:43;7.28;;;4.95;;
42770;SDS011;28426;42.872;25.314;2023-03-01T03:23:14;10.00;;;6.57;;
42770;SDS011;28426;42.872;25.314;2023-03-01T03:25:47;11.60;;;6.97;;
42770;SDS011;28426;42.872;25.314;2023-03-01T03:28:18;10.40;;;6.13;;
42770;SDS011;28426;42.872;25.314;2023-03-01T03:30:51;11.05;;;6.60;;
42770;SDS011;28426;42.872;25.314;2023-03-01T03:33:21;15.75;;;8.18;;
42770;SDS011;28426;42.872;25.314;2023-03-01T03:35:52;14.32;;;8.30;;
42770;SDS011;28426;42.872;25.314;2023-03-01T03:38:23;19.30;;;8.60;;
42770;SDS011;28426;42.872;25.314;2023-03-01T03:40:59;20.20;;;9.18;;
42770;SDS011;28426;42.872;25.314;2023-03-01T03:43:32;16.15;;;8.32;;
42770;SDS011;28426;42.872;25.314;2023-03-01T03:46:07;20.25;;;7.95;;
42770;SDS011;28426;42.872;25.314;2023-03-01T03:48:40;17.95;;;7.68;;
42770;SDS011;28426;42.872;25.314;2023-03-01T03:51:12;21.35;;;7.10;;
42770;SDS011;28426;42.872;25.314;2023-03-01T03:53:45;48.00;;;9.35;;
42770;SDS011;28426;42.872;25.314;2023-03-01T03:56:15;24.40;;;9.40;;
42770;SDS011;28426;42.872;25.314;2023-03-01T03:58:46;21.50;;;8.15;;
42770;SDS011;28426;42.872;25.314;2023-03-01T04:01:19;16.55;;;8.02;;
42770;SDS011;28426;42.872;25.314;2023-03-01T04:03:50;46.78;;;8.23;;
42770;SDS011;28426;42.872;25.314;2023-03-01T04:06:21;26.63;;;8.27;;
42770;SDS011;28426;42.872;25.314;2023-03-01T04:08:52;16.90;;;7.65;;
42770;SDS011;28426;42.872;25.314;2023-03-01T04:11:27;21.98;;;6.97;;
42770;SDS011;28426;42.872;25.314;2023-03-01T04:13:58;17.90;;;8.10;;
42770;SDS011;28426;42.872;25.314;2023-03-01T04:16:34;19.70;;;8.15;;
42770;SDS011;28426;42.872;25.314;2023-03-01T04:19:04;20.63;;;6.88;;
42770;SDS011;28426;42.872;25.314;2023-03-01T04:21:36;13.75;;;7.30;;
42770;SDS011;28426;42.872;25.314;2023-03-01T04:24:07;21.08;;;7.38;;
42770;SDS011;28426;42.872;25.314;2023-03-01T04:26:38;16.70;;;8.45;;
42770;SDS011;28426;42.872;25.314;2023-03-01T04:29:08;15.45;;;7.78;;
42770;SDS011;28426;42.872;25.314;2023-03-01T04:31:42;18.08;;;8.63;;
42770;SDS011;28426;42.872;25.314;2023-03-01T04:34:12;17.52;;;8.10;;
42770;SDS011;28426;42.872;25.314;2023-03-01T04:36:43;16.40;;;7.35;;
42770;SDS011;28426;42.872;25.314;2023-03-01T04:39:14;18.58;;;7.03;;
42770;SDS011;28426;42.872;25.314;2023-03-01T04:41:44;14.35;;;6.88;;
42770;SDS011;28426;42.872;25.314;2023-03-01T04:44:15;14.52;;;7.47;;
42770;SDS011;28426;42.872;25.314;2023-03-01T04:46:50;20.00;;;8.60;;
42770;SDS011;28426;42.872;25.314;2023-03-01T04:49:21;19.13;;;8.88;;
42770;SDS011;28426;42.872;25.314;2023-03-01T04:51:52;18.95;;;10.15;;
42770;SDS011;28426;42.872;25.314;2023-03-01T04:54:23;22.35;;;9.80;;
42770;SDS011;28426;42.872;25.314;2023-03-01T04:56:53;17.83;;;8.65;;
42770;SDS011;28426;42.872;25.314;2023-03-01T04:59:24;13.88;;;8.10;;
42770;SDS011;28426;42.872;25.314;2023-03-01T05:01:58;20.67;;;8.05;;
42770;SDS011;28426;42.872;25.314;2023-03-01T05:04:30;18.58;;;9.32;;
42770;SDS011;28426;42.872;25.314;2023-03-01T05:07:00;17.10;;;7.40;;
42770;SDS011;28426;42.872;25.314;2023-03-01T05:09:31;13.77;;;6.82;;
42770;SDS011;28426;42.872;25.314;2023-03-01T05:12:02;14.98;;;7.45;;
42770;SDS011;28426;42.872;25.314;2023-03-01T05:14:33;17.88;;;7.80;;
42770;SDS011;28426;42.872;25.314;2023-03-01T05:17:08;15.52;;;7.07;;
42770;SDS011;28426;42.872;25.314;2023-03-01T05:19:38;14.68;;;7.47;;
42770;SDS011;28426;42.872;25.314;2023-03-01T05:22:09;11.13;;;6.32;;
42770;SDS011;28426;42.872;25.314;2023-03-01T05:24:40;14.90;;;6.75;;
42770;SDS011;28426;42.872;25.314;2023-03-01T05:27:10;15.80;;;7.22;;
42770;SDS011;28426;42.872;25.314;2023-03-01T05:29:41;16.35;;;7.82;;
42770;SDS011;28426;42.872;25.314;2023-03-01T05:32:15;18.98;;;8.20;;
42770;SDS011;28426;42.872;25.314;2023-03-01T05:34:45;16.30;;;7.85;;
42770;SDS011;28426;42.872;25.314;2023-03-01T05:37:16;17.30;;;7.93;;
42770;SDS011;28426;42.872;25.314;2023-03-01T05:39:46;18.15;;;7.28;;
42770;SDS011;28426;42.872;25.314;2023-03-01T05:42:18;15.02;;;7.47;;
42770;SDS011;28426;42.872;25.314;2023-03-01T05:44:49;16.63;;;6.68;;
42770;SDS011;28426;42.872;25.314;2023-03-01T05:47:22;23.10;;;7.22;;
42770;SDS011;28426;42.872;25.314;2023-03-01T05:49:53;12.57;;;6.38;;
42770;SDS011;28426;42.872;25.314;2023-03-01T05:52:23;12.45;;;6.80;;
42770;SDS011;28426;42.872;25.314;2023-03-01T05:54:54;11.95;;;6.13;;
42770;SDS011;28426;42.872;25.314;2023-03-01T05:57:24;14.75;;;7.55;;
42770;SDS011;28426;42.872;25.314;2023-03-01T05:59:57;16.27;;;7.38;;
42770;SDS011;28426;42.872;25.314;2023-03-01T06:02:40;12.32;;;6.45;;
42770;SDS011;28426;42.872;25.314;2023-03-01T06:05:11;16.63;;;7.25;;
42770;SDS011;28426;42.872;25.314;2023-03-01T06:07:43;11.90;;;6.68;;
42770;SDS011;28426;42.872;25.314;2023-03-01T06:10:14;22.05;;;7.65;;
42770;SDS011;28426;42.872;25.314;2023-03-01T06:12:48;15.73;;;8.98;;
42770;SDS011;28426;42.872;25.314;2023-03-01T06:15:18;14.45;;;7.80;;
42770;SDS011;28426;42.872;25.314;2023-03-01T06:17:53;15.38;;;6.95;;
42770;SDS011;28426;42.872;25.314;2023-03-01T06:20:26;16.13;;;6.65;;
42770;SDS011;28426;42.872;25.314;2023-03-01T06:22:58;16.52;;;7.05;;
42770;SDS011;28426;42.872;25.314;2023-03-01T06:25:29;18.08;;;6.72;;
42770;SDS011;28426;42.872;25.314;2023-03-01T06:28:00;14.57;;;7.05;;
42770;SDS011;28426;42.872;25.314;2023-03-01T06:30:31;13.25;;;6.18;;
42770;SDS011;28426;42.872;25.314;2023-03-01T06:33:04;16.85;;;6.05;;
42770;SDS011;28426;42.872;25.314;2023-03-01T06:35:35;9.60;;;5.45;;
42770;SDS011;28426;42.872;25.314;2023-03-01T06:38:06;13.10;;;5.82;;
42770;SDS011;28426;42.872;25.314;2023-03-01T06:40:36;15.98;;;6.13;;
42770;SDS011;28426;42.872;25.314;2023-03-01T06:43:07;12.27;;;5.40;;
42770;SDS011;28426;42.872;25.314;2023-03-01T06:45:38;10.75;;;5.63;;
42770;SDS011;28426;42.872;25.314;2023-03-01T06:48:12;9.65;;;5.70;;
42770;SDS011;28426;42.872;25.314;2023-03-01T06:50:43;14.77;;;6.28;;
42770;SDS011;28426;42.872;25.314;2023-03-01T06:53:14;14.00;;;6.13;;
42770;SDS011;28426;42.872;25.314;2023-03-01T06:55:44;12.82;;;6.75;;
42770;SDS011;28426;42.872;25.314;2023-03-01T06:58:15;10.90;;;7.20;;
42770;SDS011;28426;42.872;25.314;2023-03-01T07:00:45;15.63;;;7.32;;
42770;SDS011;28426;42.872;25.314;2023-03-01T07:03:19;18.05;;;7.00;;
42770;SDS011;28426;42.872;25.314;2023-03-01T07:05:50;14.15;;;6.97;;
42770;SDS011;28426;42.872;25.314;2023-03-01T07:08:21;11.07;;;6.50;;
42770;SDS011;28426;42.872;25.314;2023-03-01T07:10:54;13.80;;;7.57;;
42770;SDS011;28426;42.872;25.314;2023-03-01T07:13:25;12.75;;;6.75;;
42770;SDS011;28426;42.872;25.314;2023-03-01T07:15:56;9.75;;;5.45;;
42770;SDS011;28426;42.872;25.314;2023-03-01T07:18:29;9.75;;;6.20;;
42770;SDS011;28426;42.872;25.314;2023-03-01T07:21:03;10.90;;;5.32;;
42770;SDS011;28426;42.872;25.314;2023-03-01T07:23:34;9.18;;;5.47;;
42770;SDS011;28426;42.872;25.314;2023-03-01T07:26:05;11.82;;;5.10;;
42770;SDS011;28426;42.872;25.314;2023-03-01T07:28:36;9.02;;;5.07;;
42770;SDS011;28426;42.872;25.314;2023-03-01T07:31:06;10.25;;;4.93;;
42770;SDS011;28426;42.872;25.314;2023-03-01T07:33:40;8.38;;;5.25;;
42770;SDS011;28426;42.872;25.314;2023-03-01T07:36:12;7.47;;;5.10;;
42770;SDS011;28426;42.872;25.314;2023-03-01T07:38:43;7.22;;;4.70;;
42770;SDS011;28426;42.872;25.314;2023-03-01T07:41:14;9.30;;;4.85;;
42770;SDS011;28426;42.872;25.314;2023-03-01T07:43:44;12.00;;;4.80;;
42770;SDS011;28426;42.872;25.314;2023-03-01T07:46:15;8.18;;;4.90;;
42770;SDS011;28426;42.872;25.314;2023-03-01T07:48:48;9.90;;;4.80;;
42770;SDS011;28426;42.872;25.314;2023-03-01T07:51:20;7.90;;;4.80;;
42770;SDS011;28426;42.872;25.314;2023-03-01T07:53:50;8.02;;;4.85;;
42770;SDS011;28426;42.872;25.314;2023-03-01T07:56:21;6.80;;;4.32;;
42770;SDS011;28426;42.872;25.314;2023-03-01T07:58:52;6.22;;;4.07;;
42770;SDS011;28426;42.872;25.314;2023-03-01T08:01:22;9.45;;;4.90;;
42770;SDS011;28426;42.872;25.314;2023-03-01T08:03:56;7.07;;;4.20;;
42770;SDS011;28426;42.872;25.314;2023-03-01T08:06:26;9.15;;;4.30;;
42770;SDS011;28426;42.872;25.314;2023-03-01T08:08:58;9.48;;;5.47;;
42770;SDS011;28426;42.872;25.314;2023-03-01T08:11:29;7.70;;;4.18;;
42770;SDS011;28426;42.872;25.314;2023-03-01T08:13:59;6.00;;;3.72;;
42770;SDS011;28426;42.872;25.314;2023-03-01T08:16:31;6.65;;;4.18;;
42770;SDS011;28426;42.872;25.314;2023-03-01T08:19:06;7.25;;;4.32;;
42770;SDS011;28426;42.872;25.314;2023-03-01T08:21:37;7.25;;;4.30;;
42770;SDS011;28426;42.872;25.314;2023-03-01T08:24:08;8.50;;;5.20;;
42770;SDS011;28426;42.872;25.314;2023-03-01T08:26:39;8.95;;;4.85;;
42770;SDS011;28426;42.872;25.314;2023-03-01T08:29:10;8.05;;;4.60;;
42770;SDS011;28426;42.872;25.314;2023-03-01T08:31:41;7.70;;;5.10;;
42770;SDS011;28426;42.872;25.314;2023-03-01T08:34:15;8.80;;;4.93;;
42770;SDS011;28426;42.872;25.314;2023-03-01T08:36:46;8.20;;;5.47;;
42770;SDS011;28426;42.872;25.314;2023-03-01T08:39:19;8.35;;;5.25;;
42770;SDS011;28426;42.872;25.314;2023-03-01T08:41:50;8.35;;;5.10;;
42770;SDS011;28426;42.872;25.314;2023-03-01T08:44:21;7.85;;;4.45;;
42770;SDS011;28426;42.872;25.314;2023-03-01T08:46:52;10.13;;;6.13;;
42770;SDS011;28426;42.872;25.314;2023-03-01T08:49:25;8.77;;;5.22;;
42770;SDS011;28426;42.872;25.314;2023-03-01T08:51:56;9.65;;;5.95;;
42770;SDS011;28426;42.872;25.314;2023-03-01T08:54:26;18.50;;;13.23;;
42770;SDS011;28426;42.872;25.314;2023-03-01T08:56:57;11.02;;;7.15;;
42770;SDS011;28426;42.872;25.314;2023-03-01T08:59:28;12.02;;;8.38;;
42770;SDS011;28426;42.872;25.314;2023-03-01T09:02:04;8.45;;;5.28;;
42770;SDS011;28426;42.872;25.314;2023-03-01T09:04:37;6.78;;;4.20;;
42770;SDS011;28426;42.872;25.314;2023-03-01T09:07:08;8.95;;;4.70;;
42770;SDS011;28426;42.872;25.314;2023-03-01T09:09:39;6.53;;;4.38;;
42770;SDS011;28426;42.872;25.314;2023-03-01T09:12:09;7.90;;;4.95;;
42770;SDS011;28426;42.872;25.314;2023-03-01T09:14:40;8.45;;;5.80;;
42770;SDS011;28426;42.872;25.314;2023-03-01T09:17:11;9.07;;;4.30;;
42770;SDS011;28426;42.872;25.314;2023-03-01T09:19:44;5.18;;;3.10;;
42770;SDS011;28426;42.872;25.314;2023-03-01T09:22:14;5.90;;;3.40;;
42770;SDS011;28426;42.872;25.314;2023-03-01T09:24:45;6.40;;;3.85;;
42770;SDS011;28426;42.872;25.314;2023-03-01T09:27:16;7.53;;;4.28;;
42770;SDS011;28426;42.872;25.314;2023-03-01T09:29:47;6.95;;;5.18;;
42770;SDS011;28426;42.872;25.314;2023-03-01T09:32:17;7.55;;;3.00;;
42770;SDS011;28426;42.872;25.314;2023-03-01T09:34:50;6.00;;;3.33;;
42770;SDS011;28426;42.872;25.314;2023-03-01T09:37:36;4.45;;;2.33;;
42770;SDS011;28426;42.872;25.314;2023-03-01T09:40:11;5.78;;;2.83;;
42770;SDS011;28426;42.872;25.314;2023-03-01T09:42:46;4.68;;;2.80;;
42770;SDS011;28426;42.872;25.314;2023-03-01T09:45:25;5.97;;;2.10;;
42770;SDS011;28426;42.872;25.314;2023-03-01T09:48:00;3.90;;;2.30;;
42770;SDS011;28426;42.872;25.314;2023-03-01T09:50:38;6.43;;;3.72;;
42770;SDS011;28426;42.872;25.314;2023-03-01T09:53:10;4.63;;;2.85;;
42770;SDS011;28426;42.872;25.314;2023-03-01T09:55:45;3.72;;;2.15;;
42770;SDS011;28426;42.872;25.314;2023-03-01T09:58:26;5.80;;;3.05;;
42770;SDS011;28426;42.872;25.314;2023-03-01T10:01:18;7.25;;;3.10;;
42770;SDS011;28426;42.872;25.314;2023-03-01T10:04:02;6.70;;;3.85;;
42770;SDS011;28426;42.872;25.314;2023-03-01T10:06:51;7.93;;;5.10;;
42770;SDS011;28426;42.872;25.314;2023-03-01T10:09:26;8.30;;;4.97;;
42770;SDS011;28426;42.872;25.314;2023-03-01T10:12:02;7.03;;;3.85;;
42770;SDS011;28426;42.872;25.314;2023-03-01T10:14:39;6.97;;;3.78;;
42770;SDS011;28426;42.872;25.314;2023-03-01T10:17:19;6.57;;;3.80;;
42770;SDS011;28426;42.872;25.314;2023-03-01T10:19:58;5.40;;;3.45;;
42770;SDS011;28426;42.872;25.314;2023-03-01T10:22:48;4.97;;;2.47;;
42770;SDS011;28426;42.872;25.314;2023-03-01T10:25:30;4.60;;;2.22;;
42770;SDS011;28426;42.872;25.314;2023-03-01T10:28:15;4.65;;;2.40;;
42770;SDS011;28426;42.872;25.314;2023-03-01T10:30:47;7.97;;;4.68;;
42770;SDS011;28426;42.872;25.314;2023-03-01T10:33:20;8.30;;;4.60;;
42770;SDS011;28426;42.872;25.314;2023-03-01T10:35:55;12.13;;;7.18;;
42770;SDS011;28426;42.872;25.314;2023-03-01T10:38:28;6.53;;;3.90;;
42770;SDS011;28426;42.872;25.314;2023-03-01T10:41:04;7.07;;;3.78;;
42770;SDS011;28426;42.872;25.314;2023-03-01T10:43:42;5.73;;;3.83;;
42770;SDS011;28426;42.872;25.314;2023-03-01T10:46:25;6.35;;;3.70;;
42770;SDS011;28426;42.872;25.314;2023-03-01T10:49:05;6.68;;;3.55;;
42770;SDS011;28426;42.872;25.314;2023-03-01T10:51:43;7.65;;;4.25;;
42770;SDS011;28426;42.872;25.314;2023-03-01T10:54:20;6.28;;;3.65;;
42770;SDS011;28426;42.872;25.314;2023-03-01T10:56:54;17.83;;;9.02;;
42770;SDS011;28426;42.872;25.314;2023-03-01T10:59:27;7.30;;;4.10;;
42770;SDS011;28426;42.872;25.314;2023-03-01T11:04:57;4.82;;;3.03;;
42770;SDS011;28426;42.872;25.314;2023-03-01T11:07:30;7.88;;;2.80;;
42770;SDS011;28426;42.872;25.314;2023-03-01T11:10:06;6.13;;;3.33;;
42770;SDS011;28426;42.872;25.314;2023-03-01T11:12:41;7.30;;;4.20;;
42770;SDS011;28426;42.872;25.314;2023-03-01T11:15:20;7.65;;;4.05;;
42770;SDS011;28426;42.872;25.314;2023-03-01T11:17:52;7.10;;;4.55;;
42770;SDS011;28426;42.872;25.314;2023-03-01T11:20:38;4.70;;;2.90;;
42770;SDS011;28426;42.872;25.314;2023-03-01T11:23:10;21.55;;;12.43;;
42770;SDS011;28426;42.872;25.314;2023-03-01T11:25:46;5.80;;;3.33;;
42770;SDS011;28426;42.872;25.314;2023-03-01T11:28:22;7.80;;;3.22;;
42770;SDS011;28426;42.872;25.314;2023-03-01T11:30:55;5.90;;;3.25;;
42770;SDS011;28426;42.872;25.314;2023-03-01T11:33:37;4.43;;;2.70;;
42770;SDS011;28426;42.872;25.314;2023-03-01T11:36:15;4.57;;;2.75;;
42770;SDS011;28426;42.872;25.314;2023-03-01T11:38:53;6.63;;;2.75;;
42770;SDS011;28426;42.872;25.314;2023-03-01T11:41:30;7.43;;;3.08;;
42770;SDS011;28426;42.872;25.314;2023-03-01T11:44:05;5.88;;;3.70;;
42770;SDS011;28426;42.872;25.314;2023-03-01T11:46:50;5.97;;;3.40;;
42770;SDS011;28426;42.872;25.314;2023-03-01T11:49:39;7.75;;;4.32;;
42770;SDS011;28426;42.872;25.314;2023-03-01T11:52:20;13.60;;;5.97;;
42770;SDS011;28426;42.872;25.314;2023-03-01T11:55:13;8.10;;;4.32;;
42770;SDS011;28426;42.872;25.314;2023-03-01T11:58:07;5.78;;;3.30;;
42770;SDS011;28426;42.872;25.314;2023-03-01T12:01:00;10.95;;;5.43;;
42770;SDS011;28426;42.872;25.314;2023-03-01T12:03:52;15.52;;;8.02;;
42770;SDS011;28426;42.872;25.314;2023-03-01T12:06:42;9.40;;;5.25;;
42770;SDS011;28426;42.872;25.314;2023-03-01T12:12:30;8.25;;;4.50;;
42770;SDS011;28426;42.872;25.314;2023-03-01T12:15:17;6.30;;;3.83;;
42770;SDS011;28426;42.872;25.314;2023-03-01T12:18:11;8.80;;;4.60;;
42770;SDS011;28426;42.872;25.314;2023-03-01T12:20:56;8.20;;;5.10;;
42770;SDS011;28426;42.872;25.314;2023-03-01T12:23:44;7.07;;;4.20;;
42770;SDS011;28426;42.872;25.314;2023-03-01T12:26:26;6.00;;;3.85;;
42770;SDS011;28426;42.872;25.314;2023-03-01T12:29:08;6.32;;;3.80;;
42770;SDS011;28426;42.872;25.314;2023-03-01T12:31:58;7.13;;;3.60;;
42770;SDS011;28426;42.872;25.314;2023-03-01T12:37:47;5.70;;;3.30;;
42770;SDS011;28426;42.872;25.314;2023-03-01T12:40:42;8.43;;;3.50;;
42770;SDS011;28426;42.872;25.314;2023-03-01T12:43:33;7.30;;;5.40;;
42770;SDS011;28426;42.872;25.314;2023-03-01T12:46:17;9.65;;;5.93;;
42770;SDS011;28426;42.872;25.314;2023-03-01T12:49:00;8.60;;;4.85;;
42770;SDS011;28426;42.872;25.314;2023-03-01T12:51:38;10.18;;;5.20;;
42770;SDS011;28426;42.872;25.314;2023-03-01T12:54:12;10.00;;;4.72;;
42770;SDS011;28426;42.872;25.314;2023-03-01T12:56:48;8.95;;;3.28;;
42770;SDS011;28426;42.872;25.314;2023-03-01T12:59:21;8.25;;;4.03;;
42770;SDS011;28426;42.872;25.314;2023-03-01T13:01:58;9.38;;;5.10;;
42770;SDS011;28426;42.872;25.314;2023-03-01T13:04:40;11.20;;;4.78;;
42770;SDS011;28426;42.872;25.314;2023-03-01T13:07:29;11.18;;;3.55;;
42770;SDS011;28426;42.872;25.314;2023-03-01T13:10:08;8.45;;;3.47;;
42770;SDS011;28426;42.872;25.314;2023-03-01T13:12:52;8.70;;;3.97;;
42770;SDS011;28426;42.872;25.314;2023-03-01T13:15:32;12.23;;;6.32;;
42770;SDS011;28426;42.872;25.314;2023-03-01T13:18:11;12.57;;;6.25;;
42770;SDS011;28426;42.872;25.314;2023-03-01T13:21:04;9.40;;;5.95;;
42770;SDS011;28426;42.872;25.314;2023-03-01T13:23:37;9.63;;;5.45;;
42770;SDS011;28426;42.872;25.314;2023-03-01T13:26:10;8.55;;;5.15;;
42770;SDS011;28426;42.872;25.314;2023-03-01T13:31:56;15.07;;;7.80;;
42770;SDS011;28426;42.872;25.314;2023-03-01T13:34:47;8.88;;;5.30;;
42770;SDS011;28426;42.872;25.314;2023-03-01T13:46:08;6.47;;;3.75;;
42770;SDS011;28426;42.872;25.314;2023-03-01T13:48:42;7.03;;;3.10;;
42770;SDS011;28426;42.872;25.314;2023-03-01T13:51:15;5.50;;;3.22;;
42770;SDS011;28426;42.872;25.314;2023-03-01T13:53:52;7.28;;;2.88;;
42770;SDS011;28426;42.872;25.314;2023-03-01T13:56:26;5.72;;;3.03;;
42770;SDS011;28426;42.872;25.314;2023-03-01T13:59:04;6.03;;;3.08;;
42770;SDS011;28426;42.872;25.314;2023-03-01T14:01:42;5.32;;;3.33;;
42770;SDS011;28426;42.872;25.314;2023-03-01T14:04:18;6.32;;;3.60;;
42770;SDS011;28426;42.872;25.314;2023-03-01T14:06:52;9.07;;;4.70;;
42770;SDS011;28426;42.872;25.314;2023-03-01T14:09:42;7.53;;;4.60;;
42770;SDS011;28426;42.872;25.314;2023-03-01T14:14:52;7.05;;;4.75;;
42770;SDS011;28426;42.872;25.314;2023-03-01T14:17:35;6.57;;;4.00;;
42770;SDS011;28426;42.872;25.314;2023-03-01T14:20:20;6.63;;;3.00;;
42770;SDS011;28426;42.872;25.314;2023-03-01T14:22:53;6.63;;;3.22;;
42770;SDS011;28426;42.872;25.314;2023-03-01T14:25:29;10.27;;;4.45;;
42770;SDS011;28426;42.872;25.314;2023-03-01T14:28:03;6.75;;;3.97;;
42770;SDS011;28426;42.872;25.314;2023-03-01T14:30:43;7.18;;;3.78;;
42770;SDS011;28426;42.872;25.314;2023-03-01T14:33:19;4.88;;;2.92;;
42770;SDS011;28426;42.872;25.314;2023-03-01T14:35:53;5.53;;;3.03;;
42770;SDS011;28426;42.872;25.314;2023-03-01T14:38:30;10.77;;;6.55;;
42770;SDS011;28426;42.872;25.314;2023-03-01T14:41:06;11.43;;;7.63;;
42770;SDS011;28426;42.872;25.314;2023-03-01T14:43:40;10.77;;;6.15;;
42770;SDS011;28426;42.872;25.314;2023-03-01T14:46:18;14.75;;;9.68;;
42770;SDS011;28426;42.872;25.314;2023-03-01T14:48:51;14.50;;;9.35;;
42770;SDS011;28426;42.872;25.314;2023-03-01T14:51:22;13.93;;;9.40;;
42770;SDS011;28426;42.872;25.314;2023-03-01T14:53:54;22.13;;;10.48;;
42770;SDS011;28426;42.872;25.314;2023-03-01T14:56:27;6.93;;;4.10;;
42770;SDS011;28426;42.872;25.314;2023-03-01T14:59:14;12.77;;;7.82;;
42770;SDS011;28426;42.872;25.314;2023-03-01T15:01:45;18.67;;;11.50;;
42770;SDS011;28426;42.872;25.314;2023-03-01T15:04:16;17.70;;;10.55;;
42770;SDS011;28426;42.872;25.314;2023-03-01T15:06:50;17.02;;;11.80;;
42770;SDS011;28426;42.872;25.314;2023-03-01T15:09:22;21.58;;;15.10;;
42770;SDS011;28426;42.872;25.314;2023-03-01T15:11:55;25.27;;;15.77;;
42770;SDS011;28426;42.872;25.314;2023-03-01T15:14:38;32.33;;;18.58;;
42770;SDS011;28426;42.872;25.314;2023-03-01T15:17:26;24.60;;;14.98;;
42770;SDS011;28426;42.872;25.314;2023-03-01T15:20:02;39.63;;;22.38;;
42770;SDS011;28426;42.872;25.314;2023-03-01T15:22:34;41.75;;;22.50;;
42770;SDS011;28426;42.872;25.314;2023-03-01T15:25:13;23.58;;;12.63;;
42770;SDS011;28426;42.872;25.314;2023-03-01T15:27:48;16.40;;;9.18;;
42770;SDS011;28426;42.872;25.314;2023-03-01T15:30:21;14.93;;;9.32;;
42770;SDS011;28426;42.872;25.314;2023-03-01T15:35:59;11.00;;;7.25;;
42770;SDS011;28426;42.872;25.314;2023-03-01T15:38:32;17.85;;;10.07;;
42770;SDS011;28426;42.872;25.314;2023-03-01T15:41:21;13.65;;;8.40;;